sensor_id;sensor_type;location;lat;lon;timestamp;temperature;humidity
18147;DHT22;9199;48.832;9.182;2023-08-08T00:02:25;13.90;99.90
18147;DHT22;9199;48.832;9.182;2023-08-08T00:04:52;13.90;99.90
18147;DHT22;9199;48.832;9.182;2023-08-08T00:07:19;13.90;99.90
18147;DHT22;9199;48.832;9.182;2023-08-08T00:09:47;13.90;99.90
18147;DHT22;9199;48.832;9.182;2023-08-08T00:12:14;13.90;99.90
18147;DHT22;9199;48.832;9.182;2023-08-08T00:14:41;13.90;99.90
18147;DHT22;9199;48.832;9.182;2023-08-08T00:17:07;13.90;99.90
18147;DHT22;9199;48.832;9.182;2023-08-08T00:19:34;14.00;99.90
18147;DHT22;9199;48.832;9.182;2023-08-08T00:22:01;14.00;99.90
18147;DHT22;9199;48.832;9.182;2023-08-08T00:24:27;14.10;99.90
18147;DHT22;9199;48.832;9.182;2023-08-08T00:26:55;14.10;99.90
18147;DHT22;9199;48.832;9.182;2023-08-08T00:29:22;14.10;99.90
18147;DHT22;9199;48.832;9.182;2023-08-08T00:31:49;14.20;99.90
18147;DHT22;9199;48.832;9.182;2023-08-08T00:34:15;14.20;99.90
18147;DHT22;9199;48.832;9.182;2023-08-08T00:36:42;14.20;99.90
18147;DHT22;9199;48.832;9.182;2023-08-08T00:39:09;14.20;99.90
18147;DHT22;9199;48.832;9.182;2023-08-08T00:41:36;14.30;99.90
18147;DHT22;9199;48.832;9.182;2023-08-08T00:44:04;14.30;99.90
18147;DHT22;9199;48.832;9.182;2023-08-08T00:46:31;14.30;99.90
18147;DHT22;9199;48.832;9.182;2023-08-08T00:48:58;14.30;99.90
18147;DHT22;9199;48.832;9.182;2023-08-08T00:51:25;14.30;99.90
18147;DHT22;9199;48.832;9.182;2023-08-08T00:53:52;14.40;99.90
18147;DHT22;9199;48.832;9.182;2023-08-08T00:56:19;14.40;99.90
18147;DHT22;9199;48.832;9.182;2023-08-08T00:58:46;14.40;99.90
18147;DHT22;9199;48.832;9.182;2023-08-08T01:01:17;14.40;99.90
18147;DHT22;9199;48.832;9.182;2023-08-08T01:03:44;14.40;99.90
18147;DHT22;9199;48.832;9.182;2023-08-08T01:06:14;14.40;99.90
18147;DHT22;9199;48.832;9.182;2023-08-08T01:08:47;14.40;99.90
18147;DHT22;9199;48.832;9.182;2023-08-08T01:11:15;14.30;99.90
18147;DHT22;9199;48.832;9.182;2023-08-08T01:13:42;14.30;99.90
18147;DHT22;9199;48.832;9.182;2023-08-08T01:16:10;14.30;99.90
18147;DHT22;9199;48.832;9.182;2023-08-08T01:18:39;14.20;99.90
18147;DHT22;9199;48.832;9.182;2023-08-08T01:21:08;14.20;99.90
18147;DHT22;9199;48.832;9.182;2023-08-08T01:23:42;14.20;99.90
18147;DHT22;9199;48.832;9.182;2023-08-08T01:26:12;14.20;99.90
18147;DHT22;9199;48.832;9.182;2023-08-08T01:28:39;14.20;99.90
18147;DHT22;9199;48.832;9.182;2023-08-08T01:31:05;14.30;99.90
18147;DHT22;9199;48.832;9.182;2023-08-08T01:33:32;14.30;99.90
18147;DHT22;9199;48.832;9.182;2023-08-08T01:36:02;14.40;99.90
18147;DHT22;9199;48.832;9.182;2023-08-08T01:38:33;14.40;99.90
18147;DHT22;9199;48.832;9.182;2023-08-08T01:41:01;14.50;99.90
18147;DHT22;9199;48.832;9.182;2023-08-08T01:43:29;14.50;99.90
18147;DHT22;9199;48.832;9.182;2023-08-08T01:45:56;14.60;99.90
18147;DHT22;9199;48.832;9.182;2023-08-08T01:48:24;14.60;99.90
18147;DHT22;9199;48.832;9.182;2023-08-08T01:50:51;14.70;99.90
18147;DHT22;9199;48.832;9.182;2023-08-08T01:53:18;14.70;99.90
18147;DHT22;9199;48.832;9.182;2023-08-08T01:55:45;14.70;99.90
18147;DHT22;9199;48.832;9.182;2023-08-08T01:58:11;14.80;99.90
18147;DHT22;9199;48.832;9.182;2023-08-08T02:00:40;14.80;99.90
18147;DHT22;9199;48.832;9.182;2023-08-08T02:03:09;14.80;99.90
18147;DHT22;9199;48.832;9.182;2023-08-08T02:05:36;14.80;99.90
18147;DHT22;9199;48.832;9.182;2023-08-08T02:08:03;14.80;99.90
18147;DHT22;9199;48.832;9.182;2023-08-08T02:10:30;14.80;99.90
18147;DHT22;9199;48.832;9.182;2023-08-08T02:12:57;14.80;99.90
18147;DHT22;9199;48.832;9.182;2023-08-08T02:15:23;14.80;99.90
18147;DHT22;9199;48.832;9.182;2023-08-08T02:17:52;14.90;99.90
18147;DHT22;9199;48.832;9.182;2023-08-08T02:20:19;15.00;99.90
18147;DHT22;9199;48.832;9.182;2023-08-08T02:22:46;15.10;99.90
18147;DHT22;9199;48.832;9.182;2023-08-08T02:25:12;15.10;99.90
18147;DHT22;9199;48.832;9.182;2023-08-08T02:27:39;15.20;99.90
18147;DHT22;9199;48.832;9.182;2023-08-08T02:30:07;15.20;99.90
18147;DHT22;9199;48.832;9.182;2023-08-08T02:32:34;15.20;99.90
18147;DHT22;9199;48.832;9.182;2023-08-08T02:35:02;15.20;99.90
18147;DHT22;9199;48.832;9.182;2023-08-08T02:37:29;15.10;99.90
18147;DHT22;9199;48.832;9.182;2023-08-08T02:39:55;15.00;99.90
18147;DHT22;9199;48.832;9.182;2023-08-08T02:42:22;15.00;99.90
18147;DHT22;9199;48.832;9.182;2023-08-08T02:44:49;15.00;99.90
18147;DHT22;9199;48.832;9.182;2023-08-08T02:47:15;15.00;99.90
18147;DHT22;9199;48.832;9.182;2023-08-08T02:49:42;15.00;99.90
18147;DHT22;9199;48.832;9.182;2023-08-08T02:52:10;14.90;99.90
18147;DHT22;9199;48.832;9.182;2023-08-08T02:54:37;14.90;99.90
18147;DHT22;9199;48.832;9.182;2023-08-08T02:57:04;14.80;99.90
18147;DHT22;9199;48.832;9.182;2023-08-08T02:59:31;14.70;99.90
18147;DHT22;9199;48.832;9.182;2023-08-08T03:01:57;14.60;99.90
18147;DHT22;9199;48.832;9.182;2023-08-08T03:04:24;14.50;99.90
18147;DHT22;9199;48.832;9.182;2023-08-08T03:06:51;14.50;99.90
18147;DHT22;9199;48.832;9.182;2023-08-08T03:09:19;14.40;99.90
18147;DHT22;9199;48.832;9.182;2023-08-08T03:11:46;14.30;99.90
18147;DHT22;9199;48.832;9.182;2023-08-08T03:14:13;14.30;99.90
18147;DHT22;9199;48.832;9.182;2023-08-08T03:16:40;14.20;99.90
18147;DHT22;9199;48.832;9.182;2023-08-08T03:19:07;14.20;99.90
18147;DHT22;9199;48.832;9.182;2023-08-08T03:21:34;14.20;99.90
18147;DHT22;9199;48.832;9.182;2023-08-08T03:24:01;14.10;99.90
18147;DHT22;9199;48.832;9.182;2023-08-08T03:26:29;14.00;99.90
18147;DHT22;9199;48.832;9.182;2023-08-08T03:28:55;14.00;99.90
18147;DHT22;9199;48.832;9.182;2023-08-08T03:31:22;13.90;99.90
18147;DHT22;9199;48.832;9.182;2023-08-08T03:33:49;13.90;99.90
18147;DHT22;9199;48.832;9.182;2023-08-08T03:36:16;13.90;99.90
18147;DHT22;9199;48.832;9.182;2023-08-08T03:38:42;13.90;99.90
18147;DHT22;9199;48.832;9.182;2023-08-08T03:41:11;13.90;99.90
18147;DHT22;9199;48.832;9.182;2023-08-08T03:43:40;13.90;99.90
18147;DHT22;9199;48.832;9.182;2023-08-08T03:46:07;13.90;99.90
18147;DHT22;9199;48.832;9.182;2023-08-08T03:48:34;14.00;99.90
18147;DHT22;9199;48.832;9.182;2023-08-08T03:51:00;14.00;99.90
18147;DHT22;9199;48.832;9.182;2023-08-08T03:53:28;14.00;99.90
18147;DHT22;9199;48.832;9.182;2023-08-08T03:55:54;14.10;99.90
18147;DHT22;9199;48.832;9.182;2023-08-08T03:58:21;14.10;99.90
18147;DHT22;9199;48.832;9.182;2023-08-08T04:00:49;14.20;99.90
18147;DHT22;9199;48.832;9.182;2023-08-08T04:03:17;14.20;99.90
18147;DHT22;9199;48.832;9.182;2023-08-08T04:05:45;14.20;99.90
18147;DHT22;9199;48.832;9.182;2023-08-08T04:08:13;14.30;99.90
18147;DHT22;9199;48.832;9.182;2023-08-08T04:10:40;14.30;99.90
18147;DHT22;9199;48.832;9.182;2023-08-08T04:13:06;14.40;99.90
18147;DHT22;9199;48.832;9.182;2023-08-08T04:15:33;14.40;99.90
18147;DHT22;9199;48.832;9.182;2023-08-08T04:18:01;14.50;99.90
18147;DHT22;9199;48.832;9.182;2023-08-08T04:20:28;14.50;99.90
18147;DHT22;9199;48.832;9.182;2023-08-08T04:22:55;14.60;99.90
18147;DHT22;9199;48.832;9.182;2023-08-08T04:25:22;14.70;99.90
18147;DHT22;9199;48.832;9.182;2023-08-08T04:27:48;14.70;99.90
18147;DHT22;9199;48.832;9.182;2023-08-08T04:30:15;14.80;99.90
18147;DHT22;9199;48.832;9.182;2023-08-08T04:32:42;14.80;99.90
18147;DHT22;9199;48.832;9.182;2023-08-08T04:35:10;14.80;99.90
18147;DHT22;9199;48.832;9.182;2023-08-08T04:37:36;14.80;99.90
18147;DHT22;9199;48.832;9.182;2023-08-08T04:40:04;14.80;99.90
18147;DHT22;9199;48.832;9.182;2023-08-08T04:42:31;14.80;99.90
18147;DHT22;9199;48.832;9.182;2023-08-08T04:44:58;14.80;99.90
18147;DHT22;9199;48.832;9.182;2023-08-08T04:47:25;14.90;99.90
18147;DHT22;9199;48.832;9.182;2023-08-08T04:49:51;14.80;99.90
18147;DHT22;9199;48.832;9.182;2023-08-08T04:52:19;14.90;99.90
18147;DHT22;9199;48.832;9.182;2023-08-08T04:54:46;14.90;99.90
18147;DHT22;9199;48.832;9.182;2023-08-08T04:57:13;15.00;99.90
18147;DHT22;9199;48.832;9.182;2023-08-08T04:59:39;15.00;99.90
18147;DHT22;9199;48.832;9.182;2023-08-08T05:02:08;15.00;99.90
18147;DHT22;9199;48.832;9.182;2023-08-08T05:04:34;15.00;99.90
18147;DHT22;9199;48.832;9.182;2023-08-08T05:07:01;15.20;99.90
18147;DHT22;9199;48.832;9.182;2023-08-08T05:09:29;15.40;99.90
18147;DHT22;9199;48.832;9.182;2023-08-08T05:11:56;15.60;99.90
18147;DHT22;9199;48.832;9.182;2023-08-08T05:14:23;15.70;99.90
18147;DHT22;9199;48.832;9.182;2023-08-08T05:16:49;15.70;99.90
18147;DHT22;9199;48.832;9.182;2023-08-08T05:19:16;15.80;99.90
18147;DHT22;9199;48.832;9.182;2023-08-08T05:21:43;15.80;99.90
18147;DHT22;9199;48.832;9.182;2023-08-08T05:24:09;15.90;99.90
18147;DHT22;9199;48.832;9.182;2023-08-08T05:26:37;16.00;99.90
18147;DHT22;9199;48.832;9.182;2023-08-08T05:29:04;16.10;99.90
18147;DHT22;9199;48.832;9.182;2023-08-08T05:31:31;16.00;99.90
18147;DHT22;9199;48.832;9.182;2023-08-08T05:33:57;16.00;99.90
18147;DHT22;9199;48.832;9.182;2023-08-08T05:36:24;16.00;99.90
18147;DHT22;9199;48.832;9.182;2023-08-08T05:38:51;16.00;99.90
18147;DHT22;9199;48.832;9.182;2023-08-08T05:41:17;15.90;99.90
18147;DHT22;9199;48.832;9.182;2023-08-08T05:43:46;15.90;99.90
18147;DHT22;9199;48.832;9.182;2023-08-08T05:46:12;16.20;99.90
18147;DHT22;9199;48.832;9.182;2023-08-08T05:48:39;16.40;99.90
18147;DHT22;9199;48.832;9.182;2023-08-08T05:51:06;16.60;99.90
18147;DHT22;9199;48.832;9.182;2023-08-08T05:53:32;16.70;99.90
18147;DHT22;9199;48.832;9.182;2023-08-08T05:55:59;16.90;99.90
18147;DHT22;9199;48.832;9.182;2023-08-08T05:58:26;16.90;99.90
18147;DHT22;9199;48.832;9.182;2023-08-08T06:00:54;17.00;99.90
18147;DHT22;9199;48.832;9.182;2023-08-08T06:03:20;17.10;99.90
18147;DHT22;9199;48.832;9.182;2023-08-08T06:05:47;17.20;99.90
18147;DHT22;9199;48.832;9.182;2023-08-08T06:08:14;17.30;99.90
18147;DHT22;9199;48.832;9.182;2023-08-08T06:10:42;17.30;99.90
18147;DHT22;9199;48.832;9.182;2023-08-08T06:13:09;17.50;99.90
18147;DHT22;9199;48.832;9.182;2023-08-08T06:15:35;17.70;99.90
18147;DHT22;9199;48.832;9.182;2023-08-08T06:18:05;17.70;99.90
18147;DHT22;9199;48.832;9.182;2023-08-08T06:20:31;17.60;99.90
18147;DHT22;9199;48.832;9.182;2023-08-08T06:22:58;17.40;99.90
18147;DHT22;9199;48.832;9.182;2023-08-08T06:25:25;17.50;99.90
18147;DHT22;9199;48.832;9.182;2023-08-08T06:27:51;17.60;99.90
18147;DHT22;9199;48.832;9.182;2023-08-08T06:30:18;17.80;99.90
18147;DHT22;9199;48.832;9.182;2023-08-08T06:32:45;18.00;99.90
18147;DHT22;9199;48.832;9.182;2023-08-08T06:35:13;18.30;99.90
18147;DHT22;9199;48.832;9.182;2023-08-08T06:37:42;18.50;99.90
18147;DHT22;9199;48.832;9.182;2023-08-08T06:40:10;18.80;99.90
18147;DHT22;9199;48.832;9.182;2023-08-08T06:42:38;18.80;99.90
18147;DHT22;9199;48.832;9.182;2023-08-08T06:45:05;18.90;99.90
18147;DHT22;9199;48.832;9.182;2023-08-08T06:47:32;18.70;99.90
18147;DHT22;9199;48.832;9.182;2023-08-08T06:49:59;18.50;99.90
18147;DHT22;9199;48.832;9.182;2023-08-08T06:52:27;18.50;99.90
18147;DHT22;9199;48.832;9.182;2023-08-08T06:54:54;18.50;99.90
18147;DHT22;9199;48.832;9.182;2023-08-08T06:57:20;18.60;99.90
18147;DHT22;9199;48.832;9.182;2023-08-08T06:59:47;18.90;99.90
18147;DHT22;9199;48.832;9.182;2023-08-08T07:02:16;19.10;99.90
18147;DHT22;9199;48.832;9.182;2023-08-08T07:04:43;19.40;99.90
18147;DHT22;9199;48.832;9.182;2023-08-08T07:07:09;19.70;99.90
18147;DHT22;9199;48.832;9.182;2023-08-08T07:09:37;19.80;99.90
18147;DHT22;9199;48.832;9.182;2023-08-08T07:12:05;19.80;99.90
18147;DHT22;9199;48.832;9.182;2023-08-08T07:14:31;19.80;99.90
18147;DHT22;9199;48.832;9.182;2023-08-08T07:16:58;19.80;99.90
18147;DHT22;9199;48.832;9.182;2023-08-08T07:19:25;19.70;99.90
18147;DHT22;9199;48.832;9.182;2023-08-08T07:21:52;19.50;99.90
18147;DHT22;9199;48.832;9.182;2023-08-08T07:24:19;19.40;99.90
18147;DHT22;9199;48.832;9.182;2023-08-08T07:26:47;19.60;99.90
18147;DHT22;9199;48.832;9.182;2023-08-08T07:29:14;20.00;99.90
18147;DHT22;9199;48.832;9.182;2023-08-08T07:31:40;20.20;99.90
18147;DHT22;9199;48.832;9.182;2023-08-08T07:34:07;20.00;99.90
18147;DHT22;9199;48.832;9.182;2023-08-08T07:36:34;20.20;99.90
18147;DHT22;9199;48.832;9.182;2023-08-08T07:39:01;20.40;99.90
18147;DHT22;9199;48.832;9.182;2023-08-08T07:41:30;20.70;99.90
18147;DHT22;9199;48.832;9.182;2023-08-08T07:43:58;21.00;99.90
18147;DHT22;9199;48.832;9.182;2023-08-08T07:46:25;21.40;99.40
18147;DHT22;9199;48.832;9.182;2023-08-08T07:48:52;21.70;98.50
18147;DHT22;9199;48.832;9.182;2023-08-08T07:51:18;22.10;98.70
18147;DHT22;9199;48.832;9.182;2023-08-08T07:53:45;22.10;97.20
18147;DHT22;9199;48.832;9.182;2023-08-08T07:56:12;22.50;97.50
18147;DHT22;9199;48.832;9.182;2023-08-08T07:58:38;23.10;96.30
18147;DHT22;9199;48.832;9.182;2023-08-08T08:01:06;23.30;95.80
18147;DHT22;9199;48.832;9.182;2023-08-08T08:03:33;23.10;95.40
18147;DHT22;9199;48.832;9.182;2023-08-08T08:06:00;22.90;94.70
18147;DHT22;9199;48.832;9.182;2023-08-08T08:08:26;22.30;94.40
18147;DHT22;9199;48.832;9.182;2023-08-08T08:10:53;21.90;95.50
18147;DHT22;9199;48.832;9.182;2023-08-08T08:13:20;21.50;96.40
18147;DHT22;9199;48.832;9.182;2023-08-08T08:15:46;21.00;96.30
18147;DHT22;9199;48.832;9.182;2023-08-08T08:18:15;20.60;97.40
18147;DHT22;9199;48.832;9.182;2023-08-08T08:20:42;20.40;97.90
18147;DHT22;9199;48.832;9.182;2023-08-08T08:23:09;20.30;97.80
18147;DHT22;9199;48.832;9.182;2023-08-08T08:25:36;20.20;97.70
18147;DHT22;9199;48.832;9.182;2023-08-08T08:28:03;20.10;97.90
18147;DHT22;9199;48.832;9.182;2023-08-08T08:30:30;20.10;98.50
18147;DHT22;9199;48.832;9.182;2023-08-08T08:32:57;20.30;98.40
18147;DHT22;9199;48.832;9.182;2023-08-08T08:35:25;20.40;98.80
18147;DHT22;9199;48.832;9.182;2023-08-08T08:37:51;20.80;98.00
18147;DHT22;9199;48.832;9.182;2023-08-08T08:40:18;21.20;97.90
18147;DHT22;9199;48.832;9.182;2023-08-08T08:42:46;21.30;97.80
18147;DHT22;9199;48.832;9.182;2023-08-08T08:45:14;21.50;97.00
18147;DHT22;9199;48.832;9.182;2023-08-08T08:47:44;21.50;97.20
18147;DHT22;9199;48.832;9.182;2023-08-08T08:50:13;21.70;96.10
18147;DHT22;9199;48.832;9.182;2023-08-08T08:52:42;21.70;96.20
18147;DHT22;9199;48.832;9.182;2023-08-08T08:55:09;21.80;96.20
18147;DHT22;9199;48.832;9.182;2023-08-08T08:57:36;21.60;96.70
18147;DHT22;9199;48.832;9.182;2023-08-08T09:00:03;21.90;96.50
18147;DHT22;9199;48.832;9.182;2023-08-08T09:02:31;22.50;94.50
18147;DHT22;9199;48.832;9.182;2023-08-08T09:04:59;22.90;94.30
18147;DHT22;9199;48.832;9.182;2023-08-08T09:07:29;23.20;93.00
18147;DHT22;9199;48.832;9.182;2023-08-08T09:09:59;22.80;92.50
18147;DHT22;9199;48.832;9.182;2023-08-08T09:12:26;22.90;92.20
18147;DHT22;9199;48.832;9.182;2023-08-08T09:14:55;23.10;92.20
18147;DHT22;9199;48.832;9.182;2023-08-08T09:17:24;23.20;92.10
18147;DHT22;9199;48.832;9.182;2023-08-08T09:19:53;23.00;91.60
18147;DHT22;9199;48.832;9.182;2023-08-08T09:22:19;23.00;91.70
18147;DHT22;9199;48.832;9.182;2023-08-08T09:24:46;23.10;91.10
18147;DHT22;9199;48.832;9.182;2023-08-08T09:27:14;23.00;91.00
18147;DHT22;9199;48.832;9.182;2023-08-08T09:29:42;22.90;92.30
18147;DHT22;9199;48.832;9.182;2023-08-08T09:32:09;22.70;92.60
18147;DHT22;9199;48.832;9.182;2023-08-08T09:34:36;22.70;92.10
18147;DHT22;9199;48.832;9.182;2023-08-08T09:37:02;22.60;92.00
18147;DHT22;9199;48.832;9.182;2023-08-08T09:39:30;22.30;90.40
18147;DHT22;9199;48.832;9.182;2023-08-08T09:41:57;22.20;90.30
18147;DHT22;9199;48.832;9.182;2023-08-08T09:44:26;22.20;90.10
18147;DHT22;9199;48.832;9.182;2023-08-08T09:46:55;22.40;89.70
18147;DHT22;9199;48.832;9.182;2023-08-08T09:49:22;22.40;88.40
18147;DHT22;9199;48.832;9.182;2023-08-08T09:51:49;22.50;88.70
18147;DHT22;9199;48.832;9.182;2023-08-08T09:54:16;22.70;87.70
18147;DHT22;9199;48.832;9.182;2023-08-08T09:56:44;23.30;86.90
18147;DHT22;9199;48.832;9.182;2023-08-08T09:59:10;23.80;84.60
18147;DHT22;9199;48.832;9.182;2023-08-08T10:01:40;24.10;84.60
18147;DHT22;9199;48.832;9.182;2023-08-08T10:04:07;24.50;80.60
18147;DHT22;9199;48.832;9.182;2023-08-08T10:06:34;24.00;81.30
18147;DHT22;9199;48.832;9.182;2023-08-08T10:09:02;24.20;79.70
18147;DHT22;9199;48.832;9.182;2023-08-08T10:11:30;24.00;80.90
18147;DHT22;9199;48.832;9.182;2023-08-08T10:13:57;24.40;79.70
18147;DHT22;9199;48.832;9.182;2023-08-08T10:16:25;24.70;78.30
18147;DHT22;9199;48.832;9.182;2023-08-08T10:18:58;24.80;76.90
18147;DHT22;9199;48.832;9.182;2023-08-08T10:21:25;25.20;75.30
18147;DHT22;9199;48.832;9.182;2023-08-08T10:24:02;25.20;72.90
18147;DHT22;9199;48.832;9.182;2023-08-08T10:26:30;25.20;75.10
18147;DHT22;9199;48.832;9.182;2023-08-08T10:28:57;25.50;74.00
18147;DHT22;9199;48.832;9.182;2023-08-08T10:31:25;25.90;72.60
18147;DHT22;9199;48.832;9.182;2023-08-08T10:34:03;25.70;71.60
18147;DHT22;9199;48.832;9.182;2023-08-08T10:36:44;25.60;70.30
18147;DHT22;9199;48.832;9.182;2023-08-08T10:39:15;24.90;72.50
18147;DHT22;9199;48.832;9.182;2023-08-08T10:41:45;24.90;72.00
18147;DHT22;9199;48.832;9.182;2023-08-08T10:44:12;25.20;73.20
18147;DHT22;9199;48.832;9.182;2023-08-08T10:46:41;25.40;72.20
18147;DHT22;9199;48.832;9.182;2023-08-08T10:49:12;25.40;69.80
18147;DHT22;9199;48.832;9.182;2023-08-08T10:51:41;25.80;67.30
18147;DHT22;9199;48.832;9.182;2023-08-08T10:54:13;25.80;66.80
18147;DHT22;9199;48.832;9.182;2023-08-08T10:56:40;25.20;68.60
18147;DHT22;9199;48.832;9.182;2023-08-08T10:59:15;25.30;67.90
18147;DHT22;9199;48.832;9.182;2023-08-08T11:01:45;25.10;66.70
18147;DHT22;9199;48.832;9.182;2023-08-08T11:04:14;25.40;64.60
18147;DHT22;9199;48.832;9.182;2023-08-08T11:06:42;25.70;67.40
18147;DHT22;9199;48.832;9.182;2023-08-08T11:09:09;25.90;64.80
18147;DHT22;9199;48.832;9.182;2023-08-08T11:11:37;26.80;61.70
18147;DHT22;9199;48.832;9.182;2023-08-08T11:14:11;27.80;58.90
18147;DHT22;9199;48.832;9.182;2023-08-08T11:16:38;28.30;59.00
18147;DHT22;9199;48.832;9.182;2023-08-08T11:19:05;28.00;58.60
18147;DHT22;9199;48.832;9.182;2023-08-08T11:21:35;27.70;57.40
18147;DHT22;9199;48.832;9.182;2023-08-08T11:24:03;27.10;56.40
18147;DHT22;9199;48.832;9.182;2023-08-08T11:26:30;26.80;56.10
18147;DHT22;9199;48.832;9.182;2023-08-08T11:28:59;26.60;57.30
18147;DHT22;9199;48.832;9.182;2023-08-08T11:31:26;26.90;58.10
18147;DHT22;9199;48.832;9.182;2023-08-08T11:33:54;26.90;58.50
18147;DHT22;9199;48.832;9.182;2023-08-08T11:36:21;27.10;59.20
18147;DHT22;9199;48.832;9.182;2023-08-08T11:38:50;26.90;59.10
18147;DHT22;9199;48.832;9.182;2023-08-08T11:41:19;27.30;58.00
18147;DHT22;9199;48.832;9.182;2023-08-08T11:43:49;27.50;57.30
18147;DHT22;9199;48.832;9.182;2023-08-08T11:46:16;28.30;57.70
18147;DHT22;9199;48.832;9.182;2023-08-08T11:48:46;28.70;57.50
18147;DHT22;9199;48.832;9.182;2023-08-08T11:51:15;28.50;54.70
18147;DHT22;9199;48.832;9.182;2023-08-08T11:53:50;27.80;58.20
18147;DHT22;9199;48.832;9.182;2023-08-08T11:56:18;27.60;58.90
18147;DHT22;9199;48.832;9.182;2023-08-08T11:58:46;27.60;58.30
18147;DHT22;9199;48.832;9.182;2023-08-08T12:01:13;27.60;59.20
18147;DHT22;9199;48.832;9.182;2023-08-08T12:03:40;27.30;56.90
18147;DHT22;9199;48.832;9.182;2023-08-08T12:06:13;27.40;57.40
18147;DHT22;9199;48.832;9.182;2023-08-08T12:08:41;27.70;55.90
18147;DHT22;9199;48.832;9.182;2023-08-08T12:11:10;27.80;56.90
18147;DHT22;9199;48.832;9.182;2023-08-08T12:13:38;28.00;55.40
18147;DHT22;9199;48.832;9.182;2023-08-08T12:16:06;27.80;56.80
18147;DHT22;9199;48.832;9.182;2023-08-08T12:18:33;27.90;56.60
18147;DHT22;9199;48.832;9.182;2023-08-08T12:21:00;29.00;54.40
18147;DHT22;9199;48.832;9.182;2023-08-08T12:23:27;29.20;55.10
18147;DHT22;9199;48.832;9.182;2023-08-08T12:25:54;29.30;52.90
18147;DHT22;9199;48.832;9.182;2023-08-08T12:28:22;28.70;52.30
18147;DHT22;9199;48.832;9.182;2023-08-08T12:30:49;27.40;52.80
18147;DHT22;9199;48.832;9.182;2023-08-08T12:33:16;27.10;54.60
18147;DHT22;9199;48.832;9.182;2023-08-08T12:35:42;27.30;55.40
18147;DHT22;9199;48.832;9.182;2023-08-08T12:38:09;27.10;56.00
18147;DHT22;9199;48.832;9.182;2023-08-08T12:40:36;27.20;56.60
18147;DHT22;9199;48.832;9.182;2023-08-08T12:43:03;27.60;54.80
18147;DHT22;9199;48.832;9.182;2023-08-08T12:45:31;27.30;56.60
18147;DHT22;9199;48.832;9.182;2023-08-08T12:47:58;27.20;55.20
18147;DHT22;9199;48.832;9.182;2023-08-08T12:50:25;26.80;57.90
18147;DHT22;9199;48.832;9.182;2023-08-08T12:52:52;26.40;56.60
18147;DHT22;9199;48.832;9.182;2023-08-08T12:55:18;26.80;57.10
18147;DHT22;9199;48.832;9.182;2023-08-08T12:57:45;27.00;56.40
18147;DHT22;9199;48.832;9.182;2023-08-08T13:00:13;28.00;55.70
18147;DHT22;9199;48.832;9.182;2023-08-08T13:02:41;28.90;55.10
18147;DHT22;9199;48.832;9.182;2023-08-08T13:05:08;29.40;53.10
18147;DHT22;9199;48.832;9.182;2023-08-08T13:07:35;28.90;52.30
18147;DHT22;9199;48.832;9.182;2023-08-08T13:10:02;27.40;55.40
18147;DHT22;9199;48.832;9.182;2023-08-08T13:12:30;26.30;58.70
18147;DHT22;9199;48.832;9.182;2023-08-08T13:14:57;26.80;59.50
18147;DHT22;9199;48.832;9.182;2023-08-08T13:17:23;27.10;58.00
18147;DHT22;9199;48.832;9.182;2023-08-08T13:19:51;26.70;59.70
18147;DHT22;9199;48.832;9.182;2023-08-08T13:22:18;25.60;59.90
18147;DHT22;9199;48.832;9.182;2023-08-08T13:24:45;24.90;62.20
18147;DHT22;9199;48.832;9.182;2023-08-08T13:27:12;24.60;63.70
18147;DHT22;9199;48.832;9.182;2023-08-08T13:29:38;24.70;63.70
18147;DHT22;9199;48.832;9.182;2023-08-08T13:32:05;25.80;63.50
18147;DHT22;9199;48.832;9.182;2023-08-08T13:34:32;27.10;61.40
18147;DHT22;9199;48.832;9.182;2023-08-08T13:37:00;28.00;57.60
18147;DHT22;9199;48.832;9.182;2023-08-08T13:39:27;27.90;58.50
18147;DHT22;9199;48.832;9.182;2023-08-08T13:41:53;27.70;59.10
18147;DHT22;9199;48.832;9.182;2023-08-08T13:44:20;28.30;58.30
18147;DHT22;9199;48.832;9.182;2023-08-08T13:46:47;29.20;56.00
18147;DHT22;9199;48.832;9.182;2023-08-08T13:49:13;28.80;54.30
18147;DHT22;9199;48.832;9.182;2023-08-08T13:51:41;28.30;55.40
18147;DHT22;9199;48.832;9.182;2023-08-08T13:54:09;28.30;56.30
18147;DHT22;9199;48.832;9.182;2023-08-08T13:56:36;28.60;53.70
18147;DHT22;9199;48.832;9.182;2023-08-08T13:59:03;28.10;55.70
18147;DHT22;9199;48.832;9.182;2023-08-08T14:01:30;28.40;54.70
18147;DHT22;9199;48.832;9.182;2023-08-08T14:03:56;28.10;54.50
18147;DHT22;9199;48.832;9.182;2023-08-08T14:06:23;28.00;54.10
18147;DHT22;9199;48.832;9.182;2023-08-08T14:08:50;28.50;55.40
18147;DHT22;9199;48.832;9.182;2023-08-08T14:11:19;29.40;54.80
18147;DHT22;9199;48.832;9.182;2023-08-08T14:13:45;28.90;53.40
18147;DHT22;9199;48.832;9.182;2023-08-08T14:16:12;27.60;56.20
18147;DHT22;9199;48.832;9.182;2023-08-08T14:18:39;26.60;58.40
18147;DHT22;9199;48.832;9.182;2023-08-08T14:21:05;26.90;56.30
18147;DHT22;9199;48.832;9.182;2023-08-08T14:23:32;27.60;56.00
18147;DHT22;9199;48.832;9.182;2023-08-08T14:25:59;28.10;55.40
18147;DHT22;9199;48.832;9.182;2023-08-08T14:28:27;29.10;53.30
18147;DHT22;9199;48.832;9.182;2023-08-08T14:30:53;29.00;53.00
18147;DHT22;9199;48.832;9.182;2023-08-08T14:33:20;28.00;54.60
18147;DHT22;9199;48.832;9.182;2023-08-08T14:35:47;27.40;54.50
18147;DHT22;9199;48.832;9.182;2023-08-08T14:38:14;26.40;55.70
18147;DHT22;9199;48.832;9.182;2023-08-08T14:40:41;25.40;58.60
18147;DHT22;9199;48.832;9.182;2023-08-08T14:43:08;24.60;59.80
18147;DHT22;9199;48.832;9.182;2023-08-08T14:45:38;24.20;61.40
18147;DHT22;9199;48.832;9.182;2023-08-08T14:48:05;23.90;63.20
18147;DHT22;9199;48.832;9.182;2023-08-08T14:50:33;23.60;63.70
18147;DHT22;9199;48.832;9.182;2023-08-08T14:52:59;23.20;64.60
18147;DHT22;9199;48.832;9.182;2023-08-08T14:55:26;22.80;65.70
18147;DHT22;9199;48.832;9.182;2023-08-08T14:57:53;22.60;67.00
18147;DHT22;9199;48.832;9.182;2023-08-08T15:00:19;22.50;68.50
18147;DHT22;9199;48.832;9.182;2023-08-08T15:02:47;22.60;68.60
18147;DHT22;9199;48.832;9.182;2023-08-08T15:05:14;22.60;68.90
18147;DHT22;9199;48.832;9.182;2023-08-08T15:07:41;22.40;69.70
18147;DHT22;9199;48.832;9.182;2023-08-08T15:10:08;22.30;70.70
18147;DHT22;9199;48.832;9.182;2023-08-08T15:12:35;22.20;71.70
18147;DHT22;9199;48.832;9.182;2023-08-08T15:15:03;22.10;71.40
18147;DHT22;9199;48.832;9.182;2023-08-08T15:17:30;21.90;72.20
18147;DHT22;9199;48.832;9.182;2023-08-08T15:19:58;21.70;72.30
18147;DHT22;9199;48.832;9.182;2023-08-08T15:22:24;21.90;73.20
18147;DHT22;9199;48.832;9.182;2023-08-08T15:24:51;22.30;72.90
18147;DHT22;9199;48.832;9.182;2023-08-08T15:27:18;22.70;71.30
18147;DHT22;9199;48.832;9.182;2023-08-08T15:29:45;23.10;70.20
18147;DHT22;9199;48.832;9.182;2023-08-08T15:32:12;23.50;69.90
18147;DHT22;9199;48.832;9.182;2023-08-08T15:34:38;23.40;69.10
18147;DHT22;9199;48.832;9.182;2023-08-08T15:37:06;23.60;70.20
18147;DHT22;9199;48.832;9.182;2023-08-08T15:39:34;23.80;68.90
18147;DHT22;9199;48.832;9.182;2023-08-08T15:42:01;23.60;68.10
18147;DHT22;9199;48.832;9.182;2023-08-08T15:44:27;23.10;69.80
18147;DHT22;9199;48.832;9.182;2023-08-08T15:46:54;22.70;70.80